Terminal Aerodrome Forecast
Issued by NWS

Home | Current Version | Previous Version | Text Only | Print | Product List | Glossary On
Versions: 1 2 3 4 5 6 7 8 9 10 11 12
000
FTUS46 KSEW 131700
TAFPAE
TAF
KPAE 131720Z 1318/1418 34007KT P6SM SCT150
     FM140100 27008KT P6SM VCTS BKN060CB BKN120
     FM140500 21012G20KT P6SM SCT100
     FM141100 18006KT P6SM SCT005 SCT100
      TEMPO 1412/1416 3SM BR BKN005
     FM141700 33008KT P6SM SKC=

USA.gov is the U.S. government's official web portal to all federal, state and local government web resources and services.